Time;durP1;ratioP1;P1;durP2;ratioP2;P2;SDS_P1;SDS_P2;PMS_P1;PMS_P2;Temp;Humidity;BMP_temperature;BMP_pressure;BME280_temperature;BME280_humidity;BME280_pressure;Samples;Min_cycle;Max_cycle;Signal;HPM_P1;HPM_P2
2021/09/24 00:00:39;;;;;;;9.88;7.15;;;11.40;99.90;;;;;;6276797;22;20019;-91
2021/09/24 00:03:28;;;;;;;7.88;6.45;;;11.30;99.90;;;;;;6279507;22;20029;-91
2021/09/24 00:06:18;;;;;;;8.93;7.15;;;11.20;99.90;;;;;;6277646;22;20028;-91
2021/09/24 00:09:06;;;;;;;8.82;7.40;;;11.00;99.90;;;;;;6276281;22;20046;-91
2021/09/24 00:11:56;;;;;;;8.85;7.00;;;11.00;99.90;;;;;;6254971;22;20032;-92
2021/09/24 00:14:44;;;;;;;9.88;7.20;;;11.00;99.90;;;;;;6255241;22;20032;-91
2021/09/24 00:17:31;;;;;;;8.95;7.70;;;10.90;99.90;;;;;;6276109;22;20504;-91
2021/09/24 00:20:19;;;;;;;9.35;7.03;;;10.90;99.90;;;;;;6276300;22;20035;-91
2021/09/24 00:23:07;;;;;;;10.75;7.50;;;10.70;99.90;;;;;;6276792;22;20627;-91
2021/09/24 00:25:54;;;;;;;11.68;7.95;;;10.50;99.90;;;;;;6276027;22;20031;-91
2021/09/24 00:28:41;;;;;;;9.85;8.10;;;10.30;99.90;;;;;;6253821;22;20031;-91
2021/09/24 00:31:28;;;;;;;11.55;8.23;;;10.20;99.90;;;;;;6236123;22;20439;-91
2021/09/24 00:34:19;;;;;;;12.95;8.65;;;10.20;99.90;;;;;;6277789;22;20027;-91
2021/09/24 00:37:06;;;;;;;11.57;8.27;;;10.20;99.90;;;;;;6254999;22;20020;-92
2021/09/24 00:39:56;;;;;;;11.00;8.88;;;10.10;99.90;;;;;;6275214;22;20312;-91
2021/09/24 00:42:44;;;;;;;11.85;9.07;;;9.90;99.90;;;;;;6279013;22;20028;-91
2021/09/24 00:45:31;;;;;;;13.35;9.07;;;9.90;99.90;;;;;;6275774;22;20027;-91
2021/09/24 00:48:18;;;;;;;12.55;9.63;;;9.90;99.90;;;;;;6277422;22;20583;-91
2021/09/24 00:51:05;;;;;;;15.07;10.07;;;10.00;99.90;;;;;;6254992;22;20107;-91
2021/09/24 00:53:55;;;;;;;13.55;9.27;;;10.20;99.90;;;;;;6276593;22;20027;-92
2021/09/24 00:56:43;;;;;;;10.98;8.82;;;10.30;99.90;;;;;;6276652;22;20406;-91
2021/09/24 00:59:31;;;;;;;12.43;9.13;;;10.50;99.90;;;;;;6274145;22;20043;-91
2021/09/24 01:02:19;;;;;;;12.77;9.18;;;10.50;99.90;;;;;;6255010;22;20284;-92
2021/09/24 01:05:09;;;;;;;14.35;9.35;;;10.40;99.90;;;;;;6275735;22;20019;-92
2021/09/24 01:07:56;;;;;;;13.10;9.77;;;10.50;99.90;;;;;;6253640;22;20046;-93
2021/09/24 01:10:47;;;;;;;13.38;9.63;;;10.50;99.90;;;;;;6253701;22;20023;-93
2021/09/24 01:13:40;;;;;;;12.60;9.48;;;10.50;99.90;;;;;;6274811;22;20038;-92
2021/09/24 01:16:28;;;;;;;14.77;8.82;;;10.40;99.90;;;;;;6251506;22;20031;-92
2021/09/24 01:19:15;;;;;;;13.73;8.88;;;10.20;99.90;;;;;;6275541;22;20512;-92
2021/09/24 01:22:05;;;;;;;12.73;9.57;;;10.10;99.90;;;;;;6233616;22;20029;-92
2021/09/24 01:24:53;;;;;;;12.18;9.68;;;9.90;99.90;;;;;;6252069;22;20019;-92
2021/09/24 01:27:41;;;;;;;12.77;9.88;;;9.80;99.90;;;;;;6273525;22;20024;-92
2021/09/24 01:30:28;;;;;;;17.63;10.02;;;9.70;99.90;;;;;;6255691;22;20031;-92
2021/09/24 01:33:15;;;;;;;15.20;10.02;;;9.70;99.90;;;;;;6274513;22;20028;-93
2021/09/24 01:36:02;;;;;;;15.48;10.77;;;9.70;99.90;;;;;;6287255;22;20027;-92
2021/09/24 01:38:50;;;;;;;14.57;10.50;;;9.80;99.90;;;;;;6273931;22;20016;-92
2021/09/24 01:41:44;;;;;;;15.98;10.35;;;9.80;99.90;;;;;;6301106;22;20114;-93
2021/09/24 01:44:31;;;;;;;20.85;11.15;;;9.80;99.90;;;;;;6289760;22;20110;-93
2021/09/24 01:47:18;;;;;;;17.80;11.27;;;9.90;99.90;;;;;;6256796;22;20028;-92
2021/09/24 01:50:08;;;;;;;13.80;10.68;;;9.90;99.90;;;;;;6274898;22;20046;-93
2021/09/24 01:52:56;;;;;;;15.45;10.95;;;9.90;99.90;;;;;;6274553;22;20123;-92
2021/09/24 01:55:44;;;;;;;13.38;10.63;;;10.00;99.90;;;;;;6274720;22;20472;-92
2021/09/24 01:58:32;;;;;;;18.88;10.82;;;10.10;99.90;;;;;;6251690;22;20057;-92
2021/09/24 02:01:19;;;;;;;14.43;10.55;;;10.10;99.90;;;;;;6232040;22;20023;-93
2021/09/24 02:04:08;;;;;;;13.70;10.07;;;10.00;99.90;;;;;;6274242;22;20500;-92
2021/09/24 02:06:55;;;;;;;15.52;10.50;;;10.00;99.90;;;;;;6252421;22;20107;-92
2021/09/24 02:09:44;;;;;;;13.93;9.45;;;9.90;99.90;;;;;;6252705;22;20055;-92
2021/09/24 02:12:32;;;;;;;14.63;11.05;;;9.80;99.90;;;;;;6232099;22;20042;-92
2021/09/24 02:15:19;;;;;;;15.80;10.50;;;9.70;99.90;;;;;;6277134;22;20024;-93
2021/09/24 02:18:06;;;;;;;20.58;11.38;;;9.60;99.90;;;;;;6232024;22;20030;-92
2021/09/24 02:20:54;;;;;;;17.23;11.93;;;9.60;99.90;;;;;;6276068;22;20024;-92
2021/09/24 02:23:41;;;;;;;13.75;10.65;;;9.50;99.90;;;;;;6252666;22;20019;-92
2021/09/24 02:26:29;;;;;;;18.23;11.20;;;9.40;99.90;;;;;;6276119;22;20106;-92
2021/09/24 02:29:33;;;;;;;17.20;12.30;;;9.30;99.90;;;;;;6276626;22;20024;-92
2021/09/24 02:32:23;;;;;;;16.75;11.88;;;9.20;99.90;;;;;;6255276;22;20027;-92
2021/09/24 02:35:14;;;;;;;16.08;12.43;;;9.20;99.90;;;;;;6273507;22;20093;-92
2021/09/24 02:38:01;;;;;;;18.75;13.13;;;9.30;99.90;;;;;;6235287;22;20024;-92
2021/09/24 02:40:48;;;;;;;18.58;12.90;;;9.60;99.90;;;;;;6274832;22;20024;-92
2021/09/24 02:43:36;;;;;;;17.88;11.93;;;9.70;99.90;;;;;;6274738;22;20127;-92
2021/09/24 02:46:24;;;;;;;19.17;13.00;;;9.80;99.90;;;;;;6274681;22;20403;-92
2021/09/24 02:49:14;;;;;;;16.77;12.85;;;9.80;99.90;;;;;;6255851;22;20023;-92
2021/09/24 02:52:04;;;;;;;16.92;11.70;;;9.80;99.90;;;;;;6273196;22;20024;-92
2021/09/24 02:54:51;;;;;;;18.25;11.90;;;9.80;99.90;;;;;;6253859;22;20027;-92
2021/09/24 02:57:38;;;;;;;15.25;11.75;;;9.70;99.90;;;;;;6275949;22;20434;-91
2021/09/24 03:00:27;;;;;;;19.30;12.05;;;9.70;99.90;;;;;;6230493;22;20115;-93
2021/09/24 03:03:16;;;;;;;16.33;12.13;;;9.70;99.90;;;;;;6231933;22;20026;-92
2021/09/24 03:06:04;;;;;;;17.65;13.00;;;9.60;99.90;;;;;;6280004;22;20028;-92
2021/09/24 03:08:51;;;;;;;17.45;12.20;;;9.60;99.90;;;;;;6273703;22;20023;-92
2021/09/24 03:11:39;;;;;;;19.75;11.95;;;9.60;99.90;;;;;;6252616;22;20453;-92
2021/09/24 03:14:26;;;;;;;18.50;12.40;;;9.60;99.90;;;;;;6253579;22;20038;-91
2021/09/24 03:17:13;;;;;;;16.33;12.55;;;9.50;99.90;;;;;;6253810;22;20361;-91
2021/09/24 03:20:01;;;;;;;22.90;13.98;;;9.60;99.90;;;;;;6273391;22;20054;-93
2021/09/24 03:22:48;;;;;;;21.00;12.88;;;9.50;99.90;;;;;;6252204;22;20030;-93
2021/09/24 03:25:35;;;;;;;17.38;13.30;;;9.50;99.90;;;;;;6278238;22;20082;-93
2021/09/24 03:28:22;;;;;;;18.40;12.50;;;9.40;99.90;;;;;;6252925;22;20035;-92
2021/09/24 03:31:10;;;;;;;17.80;12.80;;;9.50;99.90;;;;;;6254601;22;20024;-93
2021/09/24 03:33:57;;;;;;;22.70;13.30;;;9.40;99.90;;;;;;6274749;22;20034;-92
2021/09/24 03:36:46;;;;;;;17.35;13.07;;;9.40;99.90;;;;;;6254025;22;20057;-91
2021/09/24 03:39:36;;;;;;;19.27;13.55;;;9.40;99.90;;;;;;6252331;22;20045;-93
2021/09/24 03:42:24;;;;;;;19.27;13.32;;;9.40;99.90;;;;;;6233367;22;20028;-93
2021/09/24 03:45:14;;;;;;;20.88;14.07;;;9.40;99.90;;;;;;6276746;22;20043;-90
2021/09/24 03:48:03;;;;;;;22.05;13.05;;;9.40;99.90;;;;;;6255026;22;20106;-91
2021/09/24 03:50:50;;;;;;;19.13;13.18;;;9.30;99.90;;;;;;6275384;22;20058;-90
2021/09/24 03:53:37;;;;;;;18.58;13.25;;;9.30;99.90;;;;;;6255894;22;20089;-90
2021/09/24 03:56:25;;;;;;;16.83;12.45;;;9.30;99.90;;;;;;6213306;22;20024;-90
2021/09/24 03:59:15;;;;;;;19.23;13.00;;;9.30;99.90;;;;;;6274560;22;20028;-90
2021/09/24 04:06:48;;;;;;;19.23;12.57;;;9.10;99.90;;;;;;6275233;22;20353;-92
2021/09/24 04:09:39;;;;;;;20.83;13.43;;;9.10;99.90;;;;;;6255580;22;20109;-93
2021/09/24 04:12:29;;;;;;;21.45;14.48;;;9.00;99.90;;;;;;6275429;22;20031;-93
2021/09/24 04:15:32;;;;;;;18.30;13.75;;;9.00;99.90;;;;;;6238652;22;20418;-92
2021/09/24 04:18:20;;;;;;;20.50;14.15;;;9.00;99.90;;;;;;6274425;22;20023;-93
2021/09/24 04:21:07;;;;;;;22.58;14.02;;;9.00;99.90;;;;;;6255315;22;20035;-93
2021/09/24 04:23:57;;;;;;;19.65;13.85;;;8.80;99.90;;;;;;6273991;22;20123;-92
2021/09/24 04:26:46;;;;;;;19.83;14.07;;;8.60;99.90;;;;;;6252539;22;20054;-93
2021/09/24 04:29:33;;;;;;;24.63;16.15;;;8.60;99.90;;;;;;6251860;22;20059;-93
2021/09/24 04:32:25;;;;;;;23.87;16.77;;;8.70;99.90;;;;;;6276615;22;20055;-93
2021/09/24 05:01:33;;;;;;;31.23;19.42;;;9.50;99.90;;;;;;6066660;23;20011;-89
2021/09/24 05:17:26;;;;;;;21.80;15.93;;;9.90;99.90;;;;;;6006728;23;20019;-89
2021/09/24 05:20:13;;;;;;;23.50;16.83;;;9.90;99.90;;;;;;6063368;23;20025;-89
2021/09/24 05:23:03;;;;;;;23.85;16.02;;;9.90;99.90;;;;;;6250352;22;20241;-87
2021/09/24 05:25:51;;;;;;;21.23;15.65;;;10.00;99.90;;;;;;6271987;22;20039;-88
2021/09/24 05:28:41;;;;;;;22.40;15.77;;;10.00;99.90;;;;;;6229808;22;20035;-86
2021/09/24 05:31:32;;;;;;;20.85;14.23;;;10.10;99.90;;;;;;6274306;22;20105;-86
2021/09/24 05:34:19;;;;;;;20.60;13.43;;;10.10;99.90;;;;;;6215188;22;20028;-88
2021/09/24 05:37:07;;;;;;;19.85;13.77;;;10.10;99.90;;;;;;6250200;22;20028;-88
2021/09/24 05:39:54;;;;;;;17.92;12.50;;;10.20;99.90;;;;;;6251445;22;20030;-86
2021/09/24 05:42:41;;;;;;;17.55;12.80;;;10.20;99.90;;;;;;6210265;22;20081;-86
2021/09/24 05:45:28;;;;;;;15.48;12.60;;;10.10;99.90;;;;;;6271831;22;20492;-87
2021/09/24 05:48:18;;;;;;;16.75;12.25;;;10.10;99.90;;;;;;6271554;22;20120;-89
2021/09/24 05:51:08;;;;;;;21.05;12.43;;;10.10;99.90;;;;;;6230510;22;20112;-87
2021/09/24 05:53:56;;;;;;;17.08;12.45;;;10.10;99.90;;;;;;6251108;22;20085;-89
2021/09/24 05:56:43;;;;;;;20.77;12.70;;;10.20;99.90;;;;;;6270727;22;20043;-89
2021/09/24 05:59:33;;;;;;;18.52;12.38;;;10.30;99.90;;;;;;6248949;22;20023;-89
2021/09/24 06:02:21;;;;;;;15.65;12.13;;;10.40;99.90;;;;;;6273434;22;20035;-91
2021/09/24 06:05:11;;;;;;;19.40;11.02;;;10.50;99.90;;;;;;6231913;22;20323;-91
2021/09/24 06:07:58;;;;;;;14.48;11.05;;;10.50;99.90;;;;;;6231947;22;20024;-89
2021/09/24 06:10:46;;;;;;;13.55;10.88;;;10.60;99.90;;;;;;6274820;22;20038;-87
2021/09/24 06:13:33;;;;;;;15.57;10.98;;;10.80;99.90;;;;;;6263542;22;20035;-89
2021/09/24 06:16:24;;;;;;;12.02;9.40;;;10.90;99.90;;;;;;6288402;22;20016;-89
2021/09/24 06:19:11;;;;;;;11.95;9.48;;;11.00;99.90;;;;;;6235898;22;20431;-89
2021/09/24 06:21:59;;;;;;;14.95;10.27;;;11.10;99.90;;;;;;6251670;22;20020;-89
2021/09/24 06:24:46;;;;;;;11.25;9.38;;;11.20;99.90;;;;;;6249607;22;20027;-89
2021/09/24 06:27:33;;;;;;;14.23;8.63;;;11.40;99.90;;;;;;6230697;22;20037;-88
2021/09/24 06:30:24;;;;;;;16.80;8.57;;;11.50;99.90;;;;;;6270468;22;20072;-89
2021/09/24 06:33:11;;;;;;;11.27;8.30;;;11.70;99.90;;;;;;6250159;22;20109;-92
2021/09/24 06:36:03;;;;;;;10.35;7.40;;;11.90;99.90;;;;;;6251097;22;20023;-90
2021/09/24 06:38:57;;;;;;;10.00;7.55;;;12.10;99.90;;;;;;6273459;22;20051;-91
2021/09/24 06:41:45;;;;;;;9.63;7.15;;;12.30;99.90;;;;;;6272498;22;20031;-89
2021/09/24 06:44:34;;;;;;;8.27;7.20;;;12.50;99.90;;;;;;6257158;22;20476;-88
2021/09/24 06:47:24;;;;;;;11.73;7.97;;;12.50;99.90;;;;;;6272140;22;20027;-90
2021/09/24 06:50:13;;;;;;;10.00;7.40;;;12.50;99.90;;;;;;6250117;22;20493;-91
2021/09/24 06:53:05;;;;;;;7.28;6.47;;;12.60;99.90;;;;;;6231305;22;20037;-87
2021/09/24 06:55:57;;;;;;;11.65;8.25;;;12.80;99.90;;;;;;6274056;22;20150;-88
2021/09/24 06:58:44;;;;;;;9.57;7.22;;;13.00;99.90;;;;;;6274961;22;20020;-89
2021/09/24 07:01:32;;;;;;;9.18;6.60;;;13.10;99.90;;;;;;6274384;22;20069;-90
2021/09/24 07:04:25;;;;;;;9.95;6.88;;;13.20;99.90;;;;;;6254218;22;20020;-88
2021/09/24 07:07:20;;;;;;;9.43;7.00;;;13.30;99.90;;;;;;6275615;22;20057;-87
2021/09/24 07:10:12;;;;;;;8.00;6.60;;;13.70;99.90;;;;;;6252992;22;20038;-88
2021/09/24 07:13:01;;;;;;;7.13;6.38;;;14.00;99.90;;;;;;6254858;22;20027;-88
2021/09/24 07:15:48;;;;;;;9.43;6.53;;;14.00;99.90;;;;;;6275057;22;20104;-91
2021/09/24 07:18:36;;;;;;;9.90;6.15;;;14.10;99.90;;;;;;6272777;22;20024;-93
2021/09/24 07:21:41;;;;;;;8.80;6.47;;;14.10;99.90;;;;;;6271965;22;20403;-89
2021/09/24 07:24:32;;;;;;;11.95;7.50;;;14.10;99.90;;;;;;6252529;22;20027;-89
2021/09/24 07:27:24;;;;;;;9.52;7.55;;;14.10;99.90;;;;;;6252408;22;20073;-89
2021/09/24 07:30:17;;;;;;;9.57;6.90;;;14.10;99.90;;;;;;6273407;22;20117;-88
2021/09/24 07:33:05;;;;;;;8.90;7.05;;;14.30;99.90;;;;;;6276366;22;20038;-88
2021/09/24 07:35:52;;;;;;;11.00;7.22;;;14.50;99.90;;;;;;6254632;22;20450;-88
2021/09/24 07:38:39;;;;;;;7.95;6.40;;;14.70;99.90;;;;;;6273835;22;20028;-89
2021/09/24 07:41:26;;;;;;;11.30;7.20;;;14.90;99.90;;;;;;6276124;22;20024;-87
2021/09/24 07:44:14;;;;;;;7.97;6.38;;;15.00;99.90;;;;;;6275710;22;20047;-88
2021/09/24 07:47:02;;;;;;;10.82;7.03;;;15.10;99.90;;;;;;6254078;22;20027;-90
2021/09/24 07:49:52;;;;;;;10.68;7.10;;;15.30;99.90;;;;;;6274235;22;20024;-87
2021/09/24 07:52:40;;;;;;;8.32;6.63;;;15.40;99.90;;;;;;6274128;22;20055;-87
2021/09/24 07:55:28;;;;;;;9.48;7.22;;;15.40;99.90;;;;;;6274023;22;20037;-89
2021/09/24 07:58:15;;;;;;;12.85;7.13;;;15.60;99.90;;;;;;6274651;22;20415;-88
2021/09/24 08:01:03;;;;;;;9.90;7.10;;;15.80;99.90;;;;;;6273039;22;20034;-87
2021/09/24 08:03:51;;;;;;;10.35;7.00;;;16.10;99.90;;;;;;6273833;22;20020;-90
2021/09/24 08:06:39;;;;;;;7.07;6.10;;;16.40;99.90;;;;;;6272984;22;20078;-90
2021/09/24 08:09:26;;;;;;;6.82;6.13;;;16.80;99.90;;;;;;6251444;22;20031;-89
2021/09/24 08:12:14;;;;;;;7.35;5.85;;;17.80;99.90;;;;;;6276240;22;20378;-90
2021/09/24 08:15:03;;;;;;;8.27;6.05;;;18.70;99.90;;;;;;6274167;22;20028;-89
2021/09/24 08:17:56;;;;;;;8.00;5.40;;;19.20;99.90;;;;;;6252566;22;20067;-85
2021/09/24 08:20:54;;;;;;;6.45;5.05;;;20.00;99.90;;;;;;6253201;22;20023;-91
2021/09/24 08:23:53;;;;;;;5.53;4.55;;;21.00;99.30;;;;;;6257705;22;20027;-93
2021/09/24 08:27:04;;;;;;;4.90;4.40;;;22.10;94.40;;;;;;6223187;22;20030;-91
2021/09/24 08:29:52;;;;;;;5.88;4.70;;;22.70;88.80;;;;;;6275191;22;20027;-93
2021/09/24 08:33:02;;;;;;;9.77;4.90;;;23.20;84.70;;;;;;6236802;22;20445;-92
2021/09/24 08:35:50;;;;;;;8.43;5.28;;;23.20;81.20;;;;;;6254081;22;20035;-92
2021/09/24 08:38:37;;;;;;;7.22;4.93;;;23.30;79.30;;;;;;6234091;22;20073;-89
2021/09/24 08:41:27;;;;;;;5.85;4.40;;;22.70;80.50;;;;;;6276473;22;20024;-91
2021/09/24 08:44:15;;;;;;;5.65;4.60;;;23.10;78.40;;;;;;6251413;22;20465;-89
2021/09/24 08:47:03;;;;;;;6.25;4.32;;;23.10;78.00;;;;;;6274672;22;20062;-90
2021/09/24 08:49:50;;;;;;;7.07;5.05;;;22.30;78.40;;;;;;6275526;22;20093;-88
2021/09/24 08:52:40;;;;;;;7.78;4.72;;;22.00;81.40;;;;;;6253235;22;20085;-91
2021/09/24 08:55:28;;;;;;;8.52;4.47;;;22.20;78.90;;;;;;6275500;22;20069;-89
2021/09/24 08:58:19;;;;;;;7.28;5.03;;;22.40;79.80;;;;;;6272987;22;20081;-91
2021/09/24 09:01:08;;;;;;;5.88;4.45;;;23.30;75.10;;;;;;6249756;22;20089;-88
2021/09/24 09:03:57;;;;;;;5.95;4.63;;;23.90;72.80;;;;;;6272528;22;20062;-88
2021/09/24 09:06:46;;;;;;;8.02;4.30;;;23.50;73.00;;;;;;6250731;22;20031;-89
2021/09/24 09:09:35;;;;;;;4.75;3.85;;;23.20;71.00;;;;;;6272200;22;20117;-88
2021/09/24 09:12:28;;;;;;;8.73;4.97;;;23.50;72.50;;;;;;6272852;22;20501;-86
2021/09/24 09:15:15;;;;;;;5.93;4.45;;;24.70;68.10;;;;;;6275470;22;20101;-87
2021/09/24 09:18:03;;;;;;;5.15;4.65;;;24.40;68.60;;;;;;6250688;22;20019;-87
2021/09/24 09:20:54;;;;;;;5.10;4.55;;;24.60;66.90;;;;;;6251431;22;20020;-88
2021/09/24 09:23:48;;;;;;;5.22;4.70;;;24.10;69.10;;;;;;6250032;22;20079;-88
2021/09/24 09:26:35;;;;;;;5.85;4.70;;;24.00;69.30;;;;;;6272137;22;20340;-87
2021/09/24 09:29:24;;;;;;;5.13;4.63;;;24.10;68.50;;;;;;6275200;22;20034;-86
2021/09/24 09:32:12;;;;;;;7.18;4.53;;;24.40;67.70;;;;;;6272404;22;20450;-87
2021/09/24 09:35:00;;;;;;;7.07;4.47;;;25.00;65.50;;;;;;6252445;22;20393;-87
2021/09/24 09:37:47;;;;;;;7.25;3.92;;;25.00;64.40;;;;;;6273643;22;20019;-89
2021/09/24 09:40:34;;;;;;;9.00;4.72;;;24.70;64.90;;;;;;6272979;22;20085;-87
2021/09/24 09:43:27;;;;;;;5.00;4.10;;;24.40;65.20;;;;;;6274428;22;20031;-90
2021/09/24 09:46:18;;;;;;;5.63;4.18;;;24.40;65.50;;;;;;6252649;22;20126;-86
2021/09/24 09:49:07;;;;;;;8.75;4.43;;;24.30;64.90;;;;;;6272153;22;20032;-86
2021/09/24 09:52:12;;;;;;;5.07;4.18;;;24.90;63.60;;;;;;6275874;22;20041;-87
2021/09/24 09:55:03;;;;;;;6.45;3.75;;;25.50;62.30;;;;;;6252380;22;20328;-87
2021/09/24 09:58:02;;;;;;;5.65;3.35;;;26.30;60.00;;;;;;6271857;22;20414;-89
2021/09/24 10:00:57;;;;;;;6.28;3.92;;;26.70;57.50;;;;;;6271196;22;20038;-87
2021/09/24 10:03:52;;;;;;;4.47;4.07;;;26.80;57.80;;;;;;6273723;22;20024;-88
2021/09/24 10:06:41;;;;;;;3.83;3.42;;;27.50;56.00;;;;;;6270945;22;20074;-89
2021/09/24 10:09:34;;;;;;;3.60;3.30;;;27.30;55.30;;;;;;6250934;22;20150;-88
2021/09/24 10:12:23;;;;;;;6.90;3.17;;;27.50;54.90;;;;;;6250543;22;20085;-90
2021/09/24 10:15:14;;;;;;;3.83;3.35;;;28.00;53.80;;;;;;6272659;22;20042;-88
2021/09/24 10:18:04;;;;;;;5.38;3.30;;;29.10;51.30;;;;;;6274266;22;20307;-90
2021/09/24 10:20:51;;;;;;;5.05;2.70;;;29.50;50.60;;;;;;6275292;22;20100;-87
2021/09/24 10:23:38;;;;;;;2.65;2.30;;;29.80;51.90;;;;;;6272671;22;20023;-87
2021/09/24 10:26:55;;;;;;;7.07;2.50;;;30.30;49.10;;;;;;6251340;22;20028;-88
2021/09/24 10:29:46;;;;;;;3.30;2.33;;;31.00;46.00;;;;;;6273106;22;20031;-89
2021/09/24 10:32:34;;;;;;;2.58;2.38;;;32.60;43.90;;;;;;6275392;22;20038;-88
2021/09/24 10:35:21;;;;;;;2.75;2.55;;;33.30;41.70;;;;;;6276021;22;20425;-89
2021/09/24 10:38:12;;;;;;;3.03;2.70;;;33.60;40.70;;;;;;6276076;22;20020;-87
2021/09/24 10:41:03;;;;;;;4.15;2.40;;;33.30;38.80;;;;;;6275304;22;20158;-92
2021/09/24 10:43:55;;;;;;;3.63;2.72;;;32.90;39.40;;;;;;6277692;22;20024;-87
2021/09/24 10:46:44;;;;;;;3.70;2.70;;;32.40;38.80;;;;;;6276011;22;20019;-89
2021/09/24 10:49:34;;;;;;;3.67;2.30;;;32.00;39.60;;;;;;6236055;22;20039;-87
2021/09/24 10:52:38;;;;;;;3.17;1.60;;;31.50;40.60;;;;;;6275715;22;20058;-88
2021/09/24 10:55:25;;;;;;;2.17;1.75;;;31.20;37.80;;;;;;6276327;22;20031;-89
2021/09/24 10:58:40;;;;;;;3.38;2.10;;;31.60;39.20;;;;;;6277231;22;20208;-90
2021/09/24 11:01:33;;;;;;;3.28;1.88;;;32.30;37.00;;;;;;6280813;22;20096;-93
2021/09/24 11:04:42;;;;;;;2.28;1.85;;;33.20;38.10;;;;;;6277907;22;20430;-91
2021/09/24 11:07:32;;;;;;;4.13;2.28;;;33.40;35.80;;;;;;6275903;22;20043;-89
2021/09/24 11:10:36;;;;;;;3.83;2.40;;;33.70;36.10;;;;;;6276421;22;20023;-89
2021/09/24 11:13:30;;;;;;;4.00;2.40;;;33.30;39.20;;;;;;6254422;22;20019;-89
2021/09/24 11:16:27;;;;;;;3.00;2.10;;;31.90;39.60;;;;;;6254766;22;20122;-88
2021/09/24 11:19:50;;;;;;;5.30;2.55;;;32.20;40.40;;;;;;6252856;22;20023;-88
2021/09/24 11:22:39;;;;;;;3.03;2.35;;;33.50;37.00;;;;;;6124981;23;20130;-87
2021/09/24 11:25:29;;;;;;;3.03;2.73;;;33.90;37.30;;;;;;6252491;22;20116;-87
2021/09/24 11:28:34;;;;;;;6.07;2.72;;;33.70;35.20;;;;;;6275015;22;20242;-89
2021/09/24 11:31:54;;;;;;;2.63;2.42;;;32.90;35.80;;;;;;6277767;22;20069;-87
2021/09/24 11:34:46;;;;;;;3.67;2.55;;;33.10;36.40;;;;;;6279013;22;20019;-87
2021/09/24 11:37:37;;;;;;;4.85;2.20;;;32.70;36.70;;;;;;6256558;22;20038;-87
2021/09/24 11:40:31;;;;;;;3.63;2.80;;;32.70;37.90;;;;;;6253929;22;20020;-89
2021/09/24 11:43:27;;;;;;;3.47;2.78;;;32.40;36.80;;;;;;6277703;22;20081;-88
2021/09/24 11:46:18;;;;;;;7.47;2.78;;;31.90;38.50;;;;;;6274589;22;20028;-89
2021/09/24 11:49:06;;;;;;;3.40;3.20;;;32.20;36.80;;;;;;6272996;22;20042;-87
2021/09/24 11:52:00;;;;;;;3.47;2.42;;;31.60;37.20;;;;;;6274376;22;20027;-88
2021/09/24 11:54:47;;;;;;;4.95;2.60;;;31.50;38.40;;;;;;6230852;22;20388;-91
2021/09/24 11:57:37;;;;;;;6.00;2.40;;;31.90;38.10;;;;;;6273699;22;20681;-90
2021/09/24 12:00:26;;;;;;;3.00;2.70;;;32.50;38.50;;;;;;6254567;22;20023;-86
2021/09/24 12:03:19;;;;;;;6.05;3.00;;;32.80;36.60;;;;;;6273931;22;20031;-88
2021/09/24 12:06:13;;;;;;;5.45;3.22;;;32.50;36.40;;;;;;6274573;22;20103;-87
2021/09/24 12:09:11;;;;;;;4.05;3.13;;;31.30;39.00;;;;;;6274872;22;20034;-86
2021/09/24 12:12:01;;;;;;;3.78;3.38;;;31.50;40.40;;;;;;6273629;22;20059;-87
2021/09/24 12:15:00;;;;;;;5.38;3.67;;;31.50;38.30;;;;;;6273727;22;20115;-87
2021/09/24 12:17:53;;;;;;;4.88;3.10;;;31.30;39.30;;;;;;6250952;22;20082;-87
2021/09/24 12:20:41;;;;;;;6.93;3.25;;;31.30;39.40;;;;;;6272864;22;20038;-84
2021/09/24 12:23:29;;;;;;;4.18;3.38;;;30.30;40.90;;;;;;6251680;22;20021;-86
2021/09/24 12:26:31;;;;;;;6.18;3.20;;;29.70;41.50;;;;;;6251012;22;20125;-87
2021/09/24 12:29:28;;;;;;;3.83;3.47;;;29.90;42.40;;;;;;6252601;22;20069;-87
2021/09/24 12:32:21;;;;;;;3.03;2.72;;;30.80;42.10;;;;;;6274929;22;20027;-90
2021/09/24 12:35:08;;;;;;;5.93;2.83;;;32.10;38.50;;;;;;6276436;22;20074;-92
2021/09/24 12:38:00;;;;;;;3.33;2.63;;;32.60;36.70;;;;;;6276220;22;20031;-88
2021/09/24 12:41:16;;;;;;;8.13;2.95;;;32.50;37.00;;;;;;6183918;23;20429;-91
2021/09/24 12:44:06;;;;;;;4.03;2.85;;;33.10;37.80;;;;;;6191357;23;20049;-91
2021/09/24 12:46:56;;;;;;;2.72;2.53;;;33.70;36.80;;;;;;6192341;23;20083;-91
2021/09/24 12:49:44;;;;;;;3.45;2.65;;;33.70;33.90;;;;;;6201330;23;20064;-92
2021/09/24 12:52:32;;;;;;;3.22;2.92;;;32.50;35.80;;;;;;6208466;23;20044;-91
2021/09/24 12:55:21;;;;;;;5.40;3.38;;;31.80;36.90;;;;;;6199382;23;20029;-92
2021/09/24 12:58:11;;;;;;;3.42;2.88;;;31.00;38.40;;;;;;6191823;23;20424;-93
2021/09/24 13:01:00;;;;;;;4.85;2.90;;;30.70;39.90;;;;;;6184716;23;20116;-90
2021/09/24 13:03:50;;;;;;;3.00;2.63;;;31.20;39.20;;;;;;6184680;23;20093;-92
2021/09/24 13:06:39;;;;;;;3.80;3.15;;;30.80;40.10;;;;;;6186065;23;20024;-90
2021/09/24 13:09:28;;;;;;;7.20;2.80;;;30.10;40.50;;;;;;6187532;23;20033;-90
2021/09/24 13:12:15;;;;;;;7.18;2.67;;;29.80;41.50;;;;;;6227455;22;20028;-87
2021/09/24 13:15:06;;;;;;;3.58;2.70;;;30.20;41.10;;;;;;6277154;22;20081;-91
2021/09/24 13:17:57;;;;;;;7.43;3.20;;;30.80;39.70;;;;;;6275326;22;20035;-91
2021/09/24 13:20:45;;;;;;;4.22;2.67;;;31.30;38.30;;;;;;6277266;22;20024;-89
2021/09/24 13:23:33;;;;;;;5.18;2.45;;;32.10;37.70;;;;;;6277755;22;20085;-91
2021/09/24 13:26:24;;;;;;;4.30;2.55;;;33.00;37.50;;;;;;6253939;22;20034;-91
2021/09/24 13:29:11;;;;;;;2.95;2.70;;;32.20;36.50;;;;;;6257550;22;20024;-92
2021/09/24 13:31:58;;;;;;;3.42;2.53;;;30.90;38.40;;;;;;6233117;22;20465;-90
2021/09/24 13:34:48;;;;;;;4.25;2.72;;;30.80;38.80;;;;;;6274859;22;20027;-91
2021/09/24 13:37:35;;;;;;;4.05;3.10;;;30.30;39.10;;;;;;6275691;22;20062;-91
2021/09/24 13:40:29;;;;;;;6.43;3.30;;;30.20;39.50;;;;;;6277626;22;20024;-94
2021/09/24 13:46:33;;;;;;;6.40;3.28;;;30.00;40.30;;;;;;6261313;22;20023;-90
2021/09/24 14:12:18;;;;;;;4.50;2.95;;;30.40;39.70;;;;;;6269299;22;20035;-91
2021/09/24 14:15:13;;;;;;;2.97;2.45;;;30.40;39.60;;;;;;6277500;22;20331;-91
2021/09/24 14:18:03;;;;;;;3.92;2.60;;;30.90;38.80;;;;;;6277015;22;20427;-92
2021/09/24 14:20:50;;;;;;;3.53;2.70;;;31.20;38.20;;;;;;6256254;22;20024;-91
2021/09/24 14:23:38;;;;;;;3.30;2.50;;;31.70;38.10;;;;;;6277061;22;20016;-92
2021/09/24 14:26:25;;;;;;;2.75;2.10;;;31.50;38.70;;;;;;6274781;22;20023;-92
2021/09/24 14:29:13;;;;;;;3.55;2.42;;;32.20;36.40;;;;;;6275214;22;20035;-90
2021/09/24 14:32:00;;;;;;;2.88;2.55;;;30.40;36.80;;;;;;6277645;22;20084;-91
2021/09/24 14:34:48;;;;;;;3.05;2.40;;;29.50;38.00;;;;;;6253249;22;20045;-92
2021/09/24 14:37:36;;;;;;;3.85;2.88;;;29.20;38.90;;;;;;6275854;22;20020;-91
2021/09/24 14:40:26;;;;;;;2.45;2.25;;;29.30;38.50;;;;;;6274792;22;20046;-92
2021/09/24 14:43:31;;;;;;;4.30;2.03;;;28.80;36.70;;;;;;6183953;23;20039;-92
2021/09/24 14:46:26;;;;;;;3.03;1.75;;;29.50;35.40;;;;;;6182953;23;20076;-92
2021/09/24 14:49:14;;;;;;;3.30;1.50;;;30.30;33.00;;;;;;6143329;23;20100;-93
2021/09/24 14:52:04;;;;;;;1.83;1.40;;;30.90;32.90;;;;;;6164273;23;20035;-92
2021/09/24 14:55:12;;;;;;;2.35;1.55;;;31.80;30.00;;;;;;6161942;23;20110;-91
2021/09/24 14:58:01;;;;;;;2.05;1.60;;;32.60;31.20;;;;;;6184380;23;20068;-91
2021/09/24 15:01:01;;;;;;;4.40;1.70;;;32.90;28.30;;;;;;6182466;23;20053;-91
2021/09/24 15:04:10;;;;;;;;;;;;;;;;;;;;;
2021/09/24 15:07:18;;;;;;;;;;;;;;;;;;;;;
2021/09/24 15:10:22;;;;;;;2.42;1.40;;;32.60;30.10;;;;;;6182825;23;20096;-93
2021/09/24 15:13:20;;;;;;;2.78;1.40;;;33.00;28.00;;;;;;6194966;22;20103;-91
2021/09/24 15:16:07;;;;;;;1.92;1.67;;;32.30;29.90;;;;;;6254725;22;20039;-91
2021/09/24 15:19:02;;;;;;;5.18;1.77;;;32.00;29.40;;;;;;6275195;22;20113;-93
2021/09/24 15:22:07;;;;;;;;;;;;;;;;;;;;;
2021/09/24 15:24:55;;;;;;;3.40;1.70;;;31.70;30.10;;;;;;6278248;22;20026;-91
2021/09/24 15:27:47;;;;;;;3.72;1.77;;;31.70;30.00;;;;;;6278334;22;20024;-93
2021/09/24 15:31:08;;;;;;;;;;;;;;;;;;;;;
2021/09/24 15:34:00;;;;;;;2.05;1.67;;;31.40;30.20;;;;;;6257896;22;20178;-91
2021/09/24 15:36:48;;;;;;;2.38;1.80;;;31.10;31.00;;;;;;6255345;22;20019;-91
2021/09/24 15:39:46;;;;;;;1.75;1.50;;;30.80;32.10;;;;;;6256555;22;20047;-92
2021/09/24 15:43:21;;;;;;;2.97;2.30;;;30.60;32.40;;;;;;6259635;22;20023;-91
2021/09/24 15:46:32;;;;;;;3.40;1.80;;;30.50;34.20;;;;;;6157007;23;20045;-91
2021/09/24 15:49:21;;;;;;;3.63;1.95;;;30.20;31.20;;;;;;6140915;23;20156;-92
2021/09/24 15:52:16;;;;;;;3.25;2.63;;;30.00;32.20;;;;;;6154504;23;20033;-92
2021/09/24 15:55:05;;;;;;;4.45;2.80;;;29.10;37.40;;;;;;6160528;23;20026;-92
2021/09/24 15:57:52;;;;;;;5.18;2.67;;;28.60;42.90;;;;;;6154580;23;20029;-92